Time;durP1;ratioP1;P1;durP2;ratioP2;P2;SDS_P1;SDS_P2;PMS_P1;PMS_P2;Temp;Humidity;BMP_temperature;BMP_pressure;BME280_temperature;BME280_humidity;BME280_pressure;Samples;Min_cycle;Max_cycle;Signal;HPM_P1;HPM_P2
2023/09/15 00:00:17;;;;;;;13.02;6.38;;;10.90;99.90;;;;;;5053659;28;20029;-75
2023/09/15 00:02:43;;;;;;;16.38;6.90;;;10.90;99.90;;;;;;5053537;28;20465;-75
2023/09/15 00:05:10;;;;;;;10.88;6.10;;;10.90;99.90;;;;;;5053663;28;20528;-75
2023/09/15 00:07:36;;;;;;;11.63;6.07;;;10.80;99.90;;;;;;5053185;28;20021;-75
2023/09/15 00:10:01;;;;;;;15.68;7.07;;;10.80;99.90;;;;;;5052977;28;20040;-75
2023/09/15 00:12:27;;;;;;;14.65;6.93;;;10.80;99.90;;;;;;5053208;28;20359;-75
2023/09/15 00:14:53;;;;;;;13.25;6.88;;;10.80;99.90;;;;;;5053624;28;20025;-75
2023/09/15 00:17:18;;;;;;;16.52;7.20;;;10.70;99.90;;;;;;5053275;28;20510;-75
2023/09/15 00:19:46;;;;;;;14.60;7.10;;;10.80;99.90;;;;;;5052911;28;20021;-75
2023/09/15 00:22:11;;;;;;;14.10;7.43;;;10.90;99.90;;;;;;5052975;28;20052;-74
2023/09/15 00:24:37;;;;;;;15.00;6.88;;;;;;;;;;5052262;28;20025;-75
2023/09/15 00:27:03;;;;;;;16.35;6.82;;;10.80;99.90;;;;;;5053276;28;20047;-75
2023/09/15 00:29:28;;;;;;;15.23;7.05;;;10.70;99.90;;;;;;5052609;28;20475;-75
2023/09/15 00:31:55;;;;;;;19.35;7.30;;;10.70;99.90;;;;;;5056888;28;20033;-75
2023/09/15 00:34:20;;;;;;;12.85;6.88;;;10.70;99.90;;;;;;5056366;28;20029;-75
2023/09/15 00:36:46;;;;;;;14.35;7.38;;;10.40;99.90;;;;;;5057041;28;20166;-76
2023/09/15 00:39:12;;;;;;;13.45;7.95;;;10.70;99.90;;;;;;5055751;28;20032;-76
2023/09/15 00:41:37;;;;;;;15.10;7.22;;;10.80;99.90;;;;;;5056945;28;20029;-74
2023/09/15 00:44:03;;;;;;;14.43;7.28;;;10.80;99.90;;;;;;5056670;28;20029;-75
2023/09/15 00:46:30;;;;;;;16.33;8.27;;;10.70;99.90;;;;;;5056143;28;20025;-75
2023/09/15 00:48:57;;;;;;;14.98;7.63;;;10.80;99.90;;;;;;5056859;28;20538;-74
2023/09/15 00:51:24;;;;;;;14.68;8.13;;;10.80;99.90;;;;;;5056043;28;20025;-75
2023/09/15 00:53:50;;;;;;;14.05;7.65;;;10.80;99.90;;;;;;5056429;28;20503;-75
2023/09/15 00:56:17;;;;;;;13.27;7.53;;;10.60;99.90;;;;;;5056656;28;20060;-75
2023/09/15 00:58:44;;;;;;;14.07;7.30;;;10.60;99.90;;;;;;5056536;28;20024;-75
2023/09/15 01:01:10;;;;;;;11.50;7.28;;;10.60;99.90;;;;;;5056184;28;20368;-75
2023/09/15 01:03:40;;;;;;;15.20;8.30;;;10.50;99.90;;;;;;5056002;28;20029;-75
2023/09/15 01:06:06;;;;;;;18.50;7.53;;;10.40;99.90;;;;;;5056182;28;20067;-75
2023/09/15 01:08:34;;;;;;;14.18;7.43;;;10.50;99.90;;;;;;5056007;28;20032;-75
2023/09/15 01:11:03;;;;;;;13.65;7.07;;;10.30;99.90;;;;;;5056337;28;20032;-75
2023/09/15 01:13:30;;;;;;;13.85;7.25;;;10.70;99.90;;;;;;5056331;28;20029;-75
2023/09/15 01:16:21;;;;;;;12.40;6.85;;;10.40;99.90;;;;;;5056400;28;20112;-75
2023/09/15 01:18:57;;;;;;;14.38;7.85;;;10.40;99.90;;;;;;5055636;28;20040;-75
2023/09/15 01:24:31;;;;;;;10.13;6.95;;;10.40;99.90;;;;;;5111985;27;20785;-75
2023/09/15 01:27:36;;;;;;;11.70;6.95;;;10.40;99.90;;;;;;5111195;28;20028;-75
2023/09/15 01:30:04;;;;;;;11.63;6.38;;;10.20;99.90;;;;;;5111878;28;20032;-75
2023/09/15 01:32:33;;;;;;;16.63;7.32;;;10.20;99.90;;;;;;5111883;28;20430;-74
2023/09/15 01:35:04;;;;;;;13.82;6.78;;;10.20;99.90;;;;;;5111929;28;20410;-75
2023/09/15 01:37:29;;;;;;;12.82;7.03;;;10.10;99.90;;;;;;5111673;28;20069;-75
2023/09/15 01:39:55;;;;;;;16.42;7.78;;;10.20;99.90;;;;;;5111432;28;20024;-75
2023/09/15 01:42:20;;;;;;;16.35;8.52;;;10.10;99.90;;;;;;5111383;28;20020;-75
2023/09/15 01:44:46;;;;;;;12.52;7.30;;;9.90;99.90;;;;;;5110945;28;20458;-75
2023/09/15 01:47:17;;;;;;;12.10;6.18;;;10.00;99.90;;;;;;5111774;28;20116;-75
2023/09/15 01:49:43;;;;;;;12.45;6.70;;;9.90;99.90;;;;;;5111777;28;20015;-75
2023/09/15 01:52:10;;;;;;;10.55;6.53;;;9.90;99.90;;;;;;5111554;28;20028;-75
2023/09/15 01:54:35;;;;;;;13.38;6.80;;;9.80;99.90;;;;;;5110887;28;20028;-75
2023/09/15 01:57:01;;;;;;;10.05;6.35;;;9.80;99.90;;;;;;5110971;28;20034;-75
2023/09/15 01:59:27;;;;;;;11.15;6.43;;;9.80;99.90;;;;;;5110832;28;20493;-76
2023/09/15 02:01:53;;;;;;;10.27;6.25;;;9.80;99.90;;;;;;5111405;28;20040;-75
2023/09/15 02:04:19;;;;;;;11.73;6.60;;;9.70;99.90;;;;;;5111127;28;20081;-75
2023/09/15 02:06:45;;;;;;;20.27;8.30;;;9.70;99.90;;;;;;5111253;28;20111;-74
2023/09/15 02:09:14;;;;;;;12.52;7.55;;;9.80;99.90;;;;;;5111558;28;20051;-75
2023/09/15 02:11:40;;;;;;;12.52;6.93;;;9.10;99.90;;;;;;5111423;28;20450;-75
2023/09/15 02:14:05;;;;;;;10.52;6.10;;;9.50;99.90;;;;;;5111487;28;20016;-74
2023/09/15 02:16:31;;;;;;;12.57;7.32;;;9.60;99.90;;;;;;5111439;28;20120;-75
2023/09/15 02:18:57;;;;;;;11.55;7.10;;;9.70;99.90;;;;;;5110667;28;20016;-74
2023/09/15 02:21:22;;;;;;;12.85;6.88;;;9.60;99.90;;;;;;5110588;28;20024;-74
2023/09/15 02:23:48;;;;;;;11.10;6.57;;;9.60;99.90;;;;;;5109922;28;20506;-75
2023/09/15 02:26:14;;;;;;;8.40;5.93;;;9.60;99.90;;;;;;5110817;28;20031;-74
2023/09/15 02:28:39;;;;;;;14.43;6.90;;;9.60;99.90;;;;;;5110550;28;20020;-75
2023/09/15 02:31:05;;;;;;;12.18;6.65;;;9.40;99.90;;;;;;5110301;28;20103;-75
2023/09/15 02:33:31;;;;;;;13.30;7.10;;;9.20;99.90;;;;;;5107414;28;20024;-75
2023/09/15 02:35:57;;;;;;;10.18;6.93;;;9.50;99.90;;;;;;5096815;28;20386;-75
2023/09/15 02:38:23;;;;;;;10.88;6.75;;;9.40;99.90;;;;;;5096608;28;20028;-75
2023/09/15 02:40:48;;;;;;;11.90;7.45;;;9.40;99.90;;;;;;5096482;28;20034;-75
2023/09/15 02:43:14;;;;;;;12.25;7.40;;;9.40;99.90;;;;;;5096197;28;20032;-75
2023/09/15 02:45:40;;;;;;;9.65;6.85;;;9.40;99.90;;;;;;5097000;28;20024;-75
2023/09/15 02:48:05;;;;;;;12.48;7.03;;;9.40;99.90;;;;;;5097022;28;20027;-75
2023/09/15 02:50:32;;;;;;;12.75;7.47;;;9.40;99.90;;;;;;5096638;28;20385;-75
2023/09/15 02:52:58;;;;;;;13.00;7.07;;;9.40;99.90;;;;;;5096833;28;20028;-75
2023/09/15 02:55:24;;;;;;;11.82;6.85;;;9.30;99.90;;;;;;5096850;28;20110;-75
2023/09/15 02:57:53;;;;;;;10.43;7.22;;;9.40;99.90;;;;;;5096465;28;20470;-74
2023/09/15 03:00:20;;;;;;;14.45;7.63;;;9.30;99.90;;;;;;5096766;28;20062;-74
2023/09/15 03:02:46;;;;;;;13.00;7.90;;;9.30;99.90;;;;;;5096590;28;20049;-74
2023/09/15 03:05:12;;;;;;;13.25;7.32;;;9.20;99.90;;;;;;5096696;28;20020;-75
2023/09/15 03:07:39;;;;;;;12.40;7.15;;;9.30;99.90;;;;;;5096338;28;20021;-75
2023/09/15 03:10:07;;;;;;;15.98;7.97;;;9.20;99.90;;;;;;5096311;28;20351;-75
2023/09/15 03:12:33;;;;;;;14.63;7.25;;;9.10;99.90;;;;;;5096208;28;20457;-75
2023/09/15 03:15:04;;;;;;;12.32;7.10;;;9.20;99.90;;;;;;5096542;28;20035;-75
2023/09/15 03:17:29;;;;;;;12.15;7.57;;;9.20;99.90;;;;;;5095659;28;20136;-74
2023/09/15 03:19:55;;;;;;;15.30;8.15;;;9.20;99.90;;;;;;5095965;28;20028;-74
2023/09/15 03:22:20;;;;;;;12.95;7.88;;;9.00;99.90;;;;;;5095863;28;20044;-74
2023/09/15 03:24:46;;;;;;;13.10;8.15;;;9.10;99.90;;;;;;5096312;28;20097;-75
2023/09/15 03:27:12;;;;;;;14.02;8.85;;;9.10;99.90;;;;;;5095965;28;20024;-74
2023/09/15 03:29:37;;;;;;;16.08;8.75;;;9.00;99.90;;;;;;5096203;28;20024;-74
2023/09/15 03:32:03;;;;;;;14.63;8.70;;;9.00;99.90;;;;;;5095473;28;20489;-74
2023/09/15 03:34:28;;;;;;;15.18;9.05;;;9.00;99.90;;;;;;5095648;28;20024;-74
2023/09/15 03:36:54;;;;;;;14.07;8.30;;;9.00;99.90;;;;;;5096039;28;20047;-74
2023/09/15 03:39:19;;;;;;;16.60;9.40;;;9.00;99.90;;;;;;5095429;28;20016;-75
2023/09/15 03:41:45;;;;;;;12.88;8.70;;;8.90;99.90;;;;;;5095607;28;20036;-75
2023/09/15 03:44:10;;;;;;;11.20;8.27;;;8.90;99.90;;;;;;5095834;28;20039;-74
2023/09/15 03:46:36;;;;;;;13.07;8.65;;;8.90;99.90;;;;;;5094566;28;20378;-74
2023/09/15 03:49:03;;;;;;;20.60;10.05;;;8.90;99.90;;;;;;5095516;28;20034;-74
2023/09/15 03:51:29;;;;;;;18.48;9.77;;;8.90;99.90;;;;;;5095744;28;20043;-74
2023/09/15 03:53:55;;;;;;;17.90;9.65;;;8.90;99.90;;;;;;5095443;28;20023;-74
2023/09/15 03:56:20;;;;;;;18.98;10.27;;;8.90;99.90;;;;;;5095658;28;20020;-74
2023/09/15 03:58:46;;;;;;;16.45;9.27;;;8.90;99.90;;;;;;5095080;28;20032;-74
2023/09/15 04:01:11;;;;;;;14.93;8.13;;;8.90;99.90;;;;;;5094995;28;20420;-74
2023/09/15 04:03:37;;;;;;;12.45;8.55;;;8.80;99.90;;;;;;5095297;28;20063;-74
2023/09/15 04:06:04;;;;;;;11.50;8.55;;;8.80;99.90;;;;;;5095154;28;20046;-74
2023/09/15 04:08:29;;;;;;;13.02;8.07;;;8.80;99.90;;;;;;5094882;28;20074;-74
2023/09/15 04:10:56;;;;;;;12.02;7.50;;;8.80;99.90;;;;;;5095470;28;20036;-74
2023/09/15 04:13:22;;;;;;;14.23;8.93;;;8.80;99.90;;;;;;5094925;28;20024;-74
2023/09/15 04:15:47;;;;;;;13.15;8.30;;;8.70;99.90;;;;;;5095011;28;20385;-74
2023/09/15 04:18:13;;;;;;;14.35;9.35;;;8.70;99.90;;;;;;5094988;28;20035;-74
2023/09/15 04:20:38;;;;;;;13.50;8.77;;;8.70;99.90;;;;;;5095198;28;20042;-74
2023/09/15 04:23:04;;;;;;;19.85;10.02;;;8.70;99.90;;;;;;5094131;28;20048;-74
2023/09/15 04:25:30;;;;;;;16.95;9.65;;;8.70;99.90;;;;;;5095170;28;20101;-74
2023/09/15 04:27:55;;;;;;;14.55;9.23;;;8.70;99.90;;;;;;5094624;28;20484;-74
2023/09/15 04:30:21;;;;;;;13.13;9.07;;;8.70;99.90;;;;;;5095041;28;20027;-73
2023/09/15 04:32:47;;;;;;;13.32;8.82;;;8.70;99.90;;;;;;5094997;28;20482;-73
2023/09/15 04:35:12;;;;;;;13.43;8.63;;;8.70;99.90;;;;;;5094602;28;20024;-74
2023/09/15 04:37:38;;;;;;;16.33;9.82;;;8.70;99.90;;;;;;5094856;28;20032;-74
2023/09/15 04:40:06;;;;;;;15.10;9.50;;;8.70;99.90;;;;;;5094804;28;20090;-74
2023/09/15 04:42:33;;;;;;;15.77;9.65;;;8.60;99.90;;;;;;5094751;28;20115;-73
2023/09/15 04:45:00;;;;;;;14.85;9.52;;;8.60;99.90;;;;;;5094544;28;20024;-73
2023/09/15 04:47:35;;;;;;;16.50;9.27;;;8.60;99.90;;;;;;5094110;28;20024;-73
2023/09/15 04:50:01;;;;;;;15.90;10.90;;;8.60;99.90;;;;;;5094695;28;20027;-73
2023/09/15 04:52:26;;;;;;;14.88;11.15;;;8.60;99.90;;;;;;5094117;28;20106;-73
2023/09/15 04:54:53;;;;;;;17.10;11.18;;;8.60;99.90;;;;;;5094389;28;20390;-74
2023/09/15 04:57:20;;;;;;;17.42;11.80;;;8.60;99.90;;;;;;5094129;28;20533;-74
2023/09/15 04:59:46;;;;;;;18.52;12.05;;;8.60;99.90;;;;;;5094560;28;20020;-74
2023/09/15 05:02:13;;;;;;;21.27;12.68;;;8.70;99.90;;;;;;5093850;28;20020;-74
2023/09/15 05:04:39;;;;;;;17.15;11.82;;;8.80;99.90;;;;;;5094599;28;20153;-74
2023/09/15 05:07:05;;;;;;;17.27;11.55;;;8.80;99.90;;;;;;5094457;28;20111;-74
2023/09/15 05:09:30;;;;;;;19.90;12.48;;;8.80;99.90;;;;;;5094042;28;20107;-77
2023/09/15 05:11:56;;;;;;;18.92;11.80;;;8.80;99.90;;;;;;5094054;28;20125;-76
2023/09/15 05:14:22;;;;;;;20.25;12.40;;;8.90;99.90;;;;;;5094368;28;20115;-75
2023/09/15 05:16:48;;;;;;;21.05;12.95;;;8.90;99.90;;;;;;5094483;28;20016;-76
2023/09/15 05:19:14;;;;;;;21.77;14.45;;;9.00;99.90;;;;;;5093945;28;20470;-74
2023/09/15 05:21:40;;;;;;;21.52;13.02;;;9.00;99.90;;;;;;5093640;28;20046;-72
2023/09/15 05:24:05;;;;;;;19.88;12.98;;;9.10;99.90;;;;;;5093392;28;20063;-74
2023/09/15 05:26:31;;;;;;;21.67;13.48;;;9.20;99.90;;;;;;5094008;28;20468;-73
2023/09/15 05:28:57;;;;;;;18.30;11.82;;;9.20;99.90;;;;;;5094164;28;20032;-73
2023/09/15 05:31:25;;;;;;;20.10;12.30;;;9.30;99.90;;;;;;5093880;28;20039;-73
2023/09/15 05:33:53;;;;;;;19.83;13.40;;;9.30;99.90;;;;;;5094228;28;20032;-73
2023/09/15 05:36:19;;;;;;;21.17;14.10;;;9.40;99.90;;;;;;5094436;28;20473;-73
2023/09/15 05:38:46;;;;;;;21.60;14.43;;;9.50;99.90;;;;;;5093833;28;20155;-73
2023/09/15 05:41:11;;;;;;;31.90;17.85;;;9.60;99.90;;;;;;5093860;28;20371;-73
2023/09/15 05:43:37;;;;;;;33.47;18.25;;;9.60;99.90;;;;;;5092885;28;20024;-73
2023/09/15 05:46:02;;;;;;;33.92;18.30;;;9.80;99.90;;;;;;5093479;28;20077;-73
2023/09/15 05:48:28;;;;;;;34.58;18.35;;;9.90;99.90;;;;;;5093454;28;20474;-74
2023/09/15 05:50:53;;;;;;;33.38;18.90;;;10.00;99.90;;;;;;5093947;28;20078;-75
2023/09/15 05:53:19;;;;;;;28.55;18.15;;;10.10;99.90;;;;;;5093937;28;20051;-75
2023/09/15 05:55:44;;;;;;;27.20;17.80;;;10.10;99.90;;;;;;5093902;28;20031;-76
2023/09/15 05:58:10;;;;;;;29.98;18.25;;;10.10;99.90;;;;;;5093468;28;20077;-78
2023/09/15 06:00:36;;;;;;;26.95;17.83;;;10.30;99.90;;;;;;5093377;28;20082;-79
2023/09/15 06:03:02;;;;;;;26.08;17.58;;;10.50;99.90;;;;;;5092902;28;20028;-77
2023/09/15 06:05:28;;;;;;;29.35;17.33;;;10.50;99.90;;;;;;5093843;28;20047;-75
2023/09/15 06:07:54;;;;;;;21.88;15.88;;;10.60;99.90;;;;;;5093657;28;20024;-74
2023/09/15 06:10:20;;;;;;;19.90;15.18;;;10.70;99.90;;;;;;5095679;28;20025;-73
2023/09/15 06:12:50;;;;;;;19.27;14.20;;;10.70;99.90;;;;;;5096884;28;20032;-74
2023/09/15 06:15:15;;;;;;;20.15;14.30;;;10.80;99.90;;;;;;5096361;28;20028;-74
2023/09/15 06:17:41;;;;;;;20.80;13.57;;;11.00;99.90;;;;;;5097067;28;20031;-74
2023/09/15 06:20:07;;;;;;;19.52;11.75;;;11.00;99.90;;;;;;5097200;28;20032;-74
2023/09/15 06:22:33;;;;;;;22.63;11.50;;;11.20;99.90;;;;;;5096502;28;20055;-74
2023/09/15 06:24:59;;;;;;;17.70;10.85;;;11.40;99.90;;;;;;5096483;28;20017;-75
2023/09/15 06:27:24;;;;;;;17.38;8.75;;;12.10;99.90;;;;;;5097089;28;20036;-75
2023/09/15 06:29:52;;;;;;;11.95;6.53;;;13.90;99.90;;;;;;5097019;28;20020;-75
2023/09/15 06:32:18;;;;;;;8.77;4.80;;;16.10;99.90;;;;;;5097238;28;20035;-75
2023/09/15 06:34:44;;;;;;;10.45;4.43;;;17.70;97.70;;;;;;5096706;28;20027;-75
2023/09/15 06:37:09;;;;;;;8.48;4.10;;;18.30;1.00;;;;;;5097257;28;20431;-75
2023/09/15 06:39:36;;;;;;;8.60;4.10;;;19.30;99.90;;;;;;5097154;28;20059;-75
2023/09/15 06:42:04;;;;;;;9.32;3.85;;;20.30;1.00;;;;;;5097091;28;20040;-75
2023/09/15 06:44:30;;;;;;;9.00;3.97;;;21.30;98.40;;;;;;5097014;28;20032;-75
2023/09/15 06:46:56;;;;;;;8.55;3.63;;;21.50;1.00;;;;;;5096865;28;20040;-75
2023/09/15 06:49:21;;;;;;;9.35;3.53;;;21.70;99.90;;;;;;5096471;28;20074;-77
2023/09/15 06:51:49;;;;;;;7.53;3.90;;;21.80;99.90;;;;;;5095393;28;20020;-74
2023/09/15 06:54:14;;;;;;;9.43;3.65;;;21.50;99.90;;;;;;5096102;28;20058;-75
2023/09/15 06:56:40;;;;;;;7.85;3.60;;;21.80;99.90;;;;;;5095280;28;20024;-75
2023/09/15 06:59:05;;;;;;;7.95;3.17;;;22.10;1.00;;;;;;5095350;28;20058;-75
2023/09/15 07:01:31;;;;;;;6.60;3.28;;;22.10;99.90;;;;;;5095483;28;20032;-75
2023/09/15 07:03:56;;;;;;;11.52;3.55;;;22.00;99.90;;;;;;5095985;28;20457;-75
2023/09/15 07:06:22;;;;;;;8.07;3.35;;;22.80;1.00;;;;;;5095612;28;20027;-75
2023/09/15 07:08:49;;;;;;;7.65;3.28;;;23.60;98.80;;;;;;5095745;28;20027;-76
2023/09/15 07:11:19;;;;;;;9.57;3.70;;;23.40;94.90;;;;;;5096542;28;20402;-75
2023/09/15 07:13:44;;;;;;;7.80;3.35;;;23.40;99.90;;;;;;5096121;28;20385;-76
2023/09/15 07:16:09;;;;;;;7.22;3.60;;;23.80;99.90;;;;;;5094832;28;20103;-75
2023/09/15 07:18:36;;;;;;;7.05;2.97;;;24.20;1.00;;;;;;5095538;28;20036;-76
2023/09/15 07:21:02;;;;;;;9.07;3.17;;;23.90;41.60;;;;;;5095273;28;20027;-76
2023/09/15 07:23:27;;;;;;;8.85;2.95;;;23.70;57.80;;;;;;5094651;28;20044;-76
2023/09/15 07:25:53;;;;;;;8.93;3.70;;;24.00;99.90;;;;;;5096260;28;20024;-76
2023/09/15 07:28:18;;;;;;;9.73;3.50;;;24.20;99.90;;;;;;5095687;28;20028;-76
2023/09/15 07:30:44;;;;;;;7.18;3.15;;;24.80;1.00;;;;;;5096061;28;20035;-76
2023/09/15 07:33:10;;;;;;;6.28;2.90;;;24.70;99.90;;;;;;5094783;28;20031;-76
2023/09/15 07:35:36;;;;;;;7.30;3.28;;;25.20;99.90;;;;;;5095318;28;20028;-75
2023/09/15 07:38:02;;;;;;;4.53;2.72;;;25.70;99.90;;;;;;5095566;28;20363;-76
2023/09/15 07:40:28;;;;;;;5.95;3.08;;;25.20;99.90;;;;;;5095794;28;20066;-76
2023/09/15 07:42:54;;;;;;;9.10;3.10;;;25.00;99.90;;;;;;5095004;28;20035;-75
2023/09/15 07:45:20;;;;;;;8.40;3.22;;;25.40;99.90;;;;;;5095051;28;20035;-75
2023/09/15 07:47:46;;;;;;;6.43;3.38;;;24.80;99.90;;;;;;5094976;28;20082;-75
2023/09/15 07:50:13;;;;;;;6.13;3.25;;;25.20;99.90;;;;;;5095478;28;20024;-76
2023/09/15 07:52:39;;;;;;;8.27;2.90;;;25.10;99.90;;;;;;5094859;28;20028;-74
2023/09/15 07:55:05;;;;;;;9.25;2.97;;;24.50;99.90;;;;;;5094796;28;20043;-75
2023/09/15 07:57:32;;;;;;;7.15;3.20;;;24.30;99.90;;;;;;5095199;28;20028;-75
2023/09/15 07:59:59;;;;;;;10.15;3.25;;;25.10;99.90;;;;;;5095230;28;20027;-75
2023/09/15 08:02:26;;;;;;;5.68;2.80;;;24.90;99.90;;;;;;5095121;28;20038;-75
2023/09/15 08:04:52;;;;;;;10.02;3.00;;;24.90;99.90;;;;;;5094474;28;20110;-76
2023/09/15 08:07:18;;;;;;;7.80;3.30;;;24.90;99.90;;;;;;5094474;28;20060;-75
2023/09/15 08:09:43;;;;;;;6.47;3.10;;;24.60;99.90;;;;;;5094839;28;20028;-75
2023/09/15 08:12:09;;;;;;;5.78;3.17;;;25.00;99.90;;;;;;5094887;28;20024;-75
2023/09/15 08:14:35;;;;;;;5.47;3.40;;;24.30;1.00;;;;;;5093735;28;20028;-75
2023/09/15 08:17:00;;;;;;;7.22;2.92;;;24.90;99.90;;;;;;5094377;28;20504;-75
2023/09/15 08:19:27;;;;;;;5.20;3.08;;;25.40;99.90;;;;;;5094701;28;20024;-76
2023/09/15 08:21:53;;;;;;;4.60;2.80;;;25.80;99.90;;;;;;5094158;28;20023;-74
2023/09/15 08:24:20;;;;;;;7.10;2.97;;;24.80;99.90;;;;;;5094237;28;20103;-75
2023/09/15 08:26:46;;;;;;;6.53;3.13;;;24.60;99.90;;;;;;5094600;28;20047;-75
2023/09/15 08:29:12;;;;;;;8.98;3.30;;;25.60;99.90;;;;;;5094808;28;20106;-75
2023/09/15 08:31:38;;;;;;;7.03;2.70;;;24.70;99.90;;;;;;5094163;28;20493;-75
2023/09/15 08:34:04;;;;;;;6.50;3.08;;;24.20;1.00;;;;;;5093685;28;20032;-75
2023/09/15 08:36:29;;;;;;;6.93;3.15;;;24.80;99.90;;;;;;5094519;28;20031;-75
2023/09/15 08:38:55;;;;;;;9.88;3.80;;;25.50;99.90;;;;;;5094564;28;20032;-75
2023/09/15 08:41:29;;;;;;;6.85;3.10;;;24.50;99.90;;;;;;5092780;28;20122;-75
2023/09/15 08:43:55;;;;;;;7.32;2.97;;;24.40;1.00;;;;;;5087569;28;20035;-76
2023/09/15 08:46:22;;;;;;;6.80;3.20;;;25.70;99.90;;;;;;5094015;28;20469;-75
2023/09/15 08:48:51;;;;;;;6.72;2.95;;;25.30;99.90;;;;;;5094137;28;20466;-75
2023/09/15 08:51:17;;;;;;;6.97;3.10;;;24.70;99.90;;;;;;5073542;28;20074;-75
2023/09/15 08:53:45;;;;;;;7.13;3.50;;;23.90;1.00;;;;;;5074207;28;20115;-75
2023/09/15 08:56:11;;;;;;;6.03;3.10;;;24.10;1.00;;;;;;5079480;28;20113;-74
2023/09/15 08:58:37;;;;;;;6.45;3.10;;;24.40;1.00;;;;;;5073856;28;20040;-74
2023/09/15 09:01:07;;;;;;;7.47;2.95;;;24.30;1.00;;;;;;5073121;28;20636;-74
2023/09/15 09:03:35;;;;;;;9.18;3.00;;;24.90;99.90;;;;;;5072777;28;20028;-75
2023/09/15 09:06:03;;;;;;;7.45;2.95;;;24.60;99.90;;;;;;5073571;28;20473;-74
2023/09/15 09:08:31;;;;;;;5.70;2.92;;;24.60;99.90;;;;;;5073882;28;20032;-74
2023/09/15 09:10:57;;;;;;;8.10;3.05;;;24.20;1.00;;;;;;5073583;28;20028;-75
2023/09/15 09:13:23;;;;;;;4.97;2.60;;;24.10;1.00;;;;;;5073232;28;20097;-73
2023/09/15 09:15:50;;;;;;;5.55;3.30;;;24.10;1.00;;;;;;5073351;28;20020;-74
2023/09/15 09:18:18;;;;;;;5.18;2.85;;;23.80;85.50;;;;;;5073159;28;20086;-74
2023/09/15 09:20:44;;;;;;;6.45;2.95;;;24.40;1.00;;;;;;5073219;28;20028;-74
2023/09/15 09:23:10;;;;;;;6.43;3.05;;;24.20;1.00;;;;;;5072662;28;20060;-74
2023/09/15 09:25:36;;;;;;;9.50;2.85;;;24.50;1.00;;;;;;5073090;28;20060;-74
2023/09/15 09:28:03;;;;;;;6.60;3.03;;;23.70;1.00;;;;;;5073714;28;20450;-74
2023/09/15 09:30:29;;;;;;;4.68;2.78;;;23.30;99.90;;;;;;5073365;28;20073;-73
2023/09/15 09:32:56;;;;;;;6.05;2.50;;;24.30;99.90;;;;;;5072786;28;20506;-74
2023/09/15 09:35:22;;;;;;;8.52;2.70;;;24.60;23.30;;;;;;5073676;28;20029;-75
2023/09/15 09:37:48;;;;;;;7.03;3.00;;;25.40;1.00;;;;;;5073735;28;20020;-74
2023/09/15 09:40:14;;;;;;;6.70;2.92;;;25.50;99.90;;;;;;5073727;28;20042;-75
2023/09/15 09:42:41;;;;;;;5.28;2.70;;;25.90;99.90;;;;;;5072479;28;20040;-75
2023/09/15 09:45:07;;;;;;;5.88;2.53;;;25.70;99.90;;;;;;5076169;28;20347;-75
2023/09/15 09:47:33;;;;;;;4.47;2.75;;;25.30;99.90;;;;;;5077256;28;20039;-74
2023/09/15 09:50:03;;;;;;;6.85;3.10;;;25.60;99.90;;;;;;5077580;28;20024;-74
2023/09/15 09:52:29;;;;;;;7.72;3.35;;;24.40;99.90;;;;;;5076590;28;20437;-75
2023/09/15 09:54:55;;;;;;;5.47;3.15;;;25.20;1.00;;;;;;5076491;28;20035;-75
2023/09/15 09:57:21;;;;;;;5.85;2.85;;;25.40;99.90;;;;;;5076394;28;20024;-75
2023/09/15 09:59:47;;;;;;;4.72;2.88;;;25.30;99.90;;;;;;5076885;28;20112;-75
2023/09/15 10:02:13;;;;;;;8.73;2.95;;;25.30;99.90;;;;;;5076477;28;20096;-73
2023/09/15 10:04:39;;;;;;;9.32;2.67;;;25.40;99.90;;;;;;5076979;28;20107;-74
2023/09/15 10:07:04;;;;;;;8.00;2.60;;;25.50;99.90;;;;;;5076622;28;20032;-74
2023/09/15 10:09:31;;;;;;;4.57;2.85;;;25.50;1.00;;;;;;5076196;28;20037;-74
2023/09/15 10:11:57;;;;;;;7.22;2.50;;;25.90;99.90;;;;;;5076196;28;20033;-74
2023/09/15 10:14:25;;;;;;;4.70;2.25;;;26.70;99.90;;;;;;5076846;28;20029;-75
2023/09/15 10:16:51;;;;;;;10.45;2.75;;;27.50;99.90;;;;;;5077183;28;20025;-73
2023/09/15 10:19:17;;;;;;;7.78;2.80;;;27.20;53.70;;;;;;5075230;28;20478;-72
2023/09/15 10:21:44;;;;;;;7.10;3.08;;;25.60;99.90;;;;;;5075064;28;20035;-74
2023/09/15 10:24:10;;;;;;;6.97;2.47;;;26.00;99.90;;;;;;5075532;28;20033;-73
2023/09/15 10:26:41;;;;;;;5.65;2.75;;;26.60;99.90;;;;;;5076333;28;20028;-74
2023/09/15 10:29:10;;;;;;;4.85;2.67;;;27.50;85.60;;;;;;5076789;28;20032;-74
2023/09/15 10:31:36;;;;;;;5.35;2.45;;;27.40;30.40;;;;;;5075583;28;20029;-75
2023/09/15 10:34:04;;;;;;;4.68;2.60;;;27.20;13.10;;;;;;5076641;28;20400;-74
2023/09/15 10:36:31;;;;;;;6.30;2.50;;;26.80;93.70;;;;;;5076052;28;20075;-75
2023/09/15 10:38:58;;;;;;;7.25;2.78;;;26.40;99.90;;;;;;5076838;28;20074;-75
2023/09/15 10:41:27;;;;;;;7.10;3.05;;;25.40;99.90;;;;;;5075786;28;20031;-74
2023/09/15 10:43:53;;;;;;;3.72;2.78;;;25.30;99.90;;;;;;5076033;28;20458;-74
2023/09/15 10:46:18;;;;;;;4.45;2.22;;;24.90;99.90;;;;;;5075510;28;20025;-75
2023/09/15 10:48:46;;;;;;;7.50;2.92;;;25.30;99.90;;;;;;5075749;28;20086;-74
2023/09/15 10:51:16;;;;;;;6.03;3.17;;;25.60;99.90;;;;;;5075607;28;20025;-74
2023/09/15 10:53:46;;;;;;;4.35;2.85;;;26.00;99.90;;;;;;5075395;28;20128;-76
2023/09/15 10:56:13;;;;;;;5.35;2.40;;;26.30;99.90;;;;;;5075035;28;20119;-74
2023/09/15 10:58:40;;;;;;;6.07;3.22;;;26.70;99.90;;;;;;5076524;28;20089;-74
2023/09/15 11:01:08;;;;;;;5.05;3.00;;;26.30;99.90;;;;;;5075035;28;20111;-74
2023/09/15 11:03:34;;;;;;;5.35;2.75;;;25.70;99.90;;;;;;5075603;28;20079;-73
2023/09/15 11:06:02;;;;;;;3.88;2.72;;;25.50;99.90;;;;;;5074967;28;20139;-73
2023/09/15 11:08:29;;;;;;;7.13;3.25;;;25.70;99.90;;;;;;5076098;28;20024;-74
2023/09/15 11:10:59;;;;;;;5.25;2.85;;;25.90;99.90;;;;;;5075524;28;20036;-74
2023/09/15 11:13:25;;;;;;;8.02;2.72;;;25.90;99.90;;;;;;5075808;28;20381;-74
2023/09/15 11:15:51;;;;;;;5.38;2.90;;;25.90;99.90;;;;;;5074679;28;20112;-74
2023/09/15 11:18:18;;;;;;;6.38;2.90;;;25.40;99.90;;;;;;5075554;28;20028;-73
2023/09/15 11:20:44;;;;;;;9.98;3.45;;;24.70;1.00;;;;;;5074517;28;20033;-74
2023/09/15 11:23:09;;;;;;;6.45;3.20;;;24.80;1.00;;;;;;5074220;28;20055;-73
2023/09/15 11:25:35;;;;;;;12.27;3.45;;;24.00;34.50;;;;;;5074900;28;20039;-74
2023/09/15 11:28:01;;;;;;;6.28;2.92;;;24.20;97.30;;;;;;5075489;28;20028;-73
2023/09/15 11:30:28;;;;;;;7.45;3.28;;;24.50;1.00;;;;;;5074803;28;20031;-74
2023/09/15 11:32:54;;;;;;;6.13;3.20;;;24.60;99.90;;;;;;5075466;28;20037;-74
2023/09/15 11:35:23;;;;;;;10.35;3.35;;;24.50;1.00;;;;;;5075629;28;20025;-74
2023/09/15 11:37:49;;;;;;;7.75;3.30;;;24.70;1.00;;;;;;5075099;28;20062;-74
2023/09/15 11:40:22;;;;;;;5.13;3.30;;;24.50;1.00;;;;;;5074557;28;20425;-73
2023/09/15 11:42:52;;;;;;;5.82;2.97;;;23.80;1.00;;;;;;5074402;28;20120;-74
2023/09/15 11:45:19;;;;;;;3.92;3.10;;;23.70;1.00;;;;;;5075378;28;20059;-74
2023/09/15 11:47:46;;;;;;;5.03;3.25;;;23.80;99.90;;;;;;5074852;28;20074;-76
2023/09/15 11:50:13;;;;;;;7.05;2.75;;;24.00;99.90;;;;;;5075076;28;20102;-74
2023/09/15 11:52:40;;;;;;;4.97;3.15;;;24.00;99.90;;;;;;5073771;28;20032;-74
2023/09/15 11:55:17;;;;;;;8.18;3.55;;;23.90;97.80;;;;;;5074213;28;20036;-72
2023/09/15 11:57:45;;;;;;;7.20;3.70;;;23.80;99.90;;;;;;5074387;28;20390;-74
2023/09/15 12:00:14;;;;;;;5.45;3.00;;;23.80;99.90;;;;;;5074913;28;20024;-74
2023/09/15 12:02:40;;;;;;;8.02;3.65;;;23.90;1.00;;;;;;5075086;28;20036;-74
2023/09/15 12:05:06;;;;;;;7.22;3.47;;;23.90;1.00;;;;;;5074193;28;20386;-73
2023/09/15 12:07:31;;;;;;;10.02;3.17;;;24.10;99.90;;;;;;5072686;28;20385;-73
2023/09/15 12:09:57;;;;;;;8.45;2.90;;;24.30;99.90;;;;;;5074731;28;20371;-70
2023/09/15 12:12:23;;;;;;;5.55;2.92;;;24.30;1.00;;;;;;5074440;28;20068;-70
2023/09/15 12:14:49;;;;;;;7.40;3.50;;;24.30;99.90;;;;;;5074203;28;20082;-71
2023/09/15 12:17:15;;;;;;;7.78;2.80;;;24.40;99.90;;;;;;5074329;28;20024;-71
2023/09/15 12:19:40;;;;;;;6.47;2.85;;;24.40;1.00;;;;;;5074105;28;20097;-71
2023/09/15 12:22:06;;;;;;;5.68;3.03;;;24.40;99.90;;;;;;5073758;28;20036;-71
2023/09/15 12:24:32;;;;;;;6.40;3.13;;;24.10;99.90;;;;;;5074493;28;20024;-71
2023/09/15 12:27:01;;;;;;;6.70;3.35;;;24.00;99.90;;;;;;5074200;28;20017;-70
2023/09/15 12:29:27;;;;;;;3.78;2.70;;;24.10;99.90;;;;;;5074657;28;20021;-70
2023/09/15 12:31:53;;;;;;;4.15;2.78;;;24.20;99.90;;;;;;5074601;28;20074;-70
2023/09/15 12:34:19;;;;;;;4.88;2.97;;;24.20;99.90;;;;;;5074555;28;20495;-71
2023/09/15 12:36:46;;;;;;;5.13;3.05;;;24.50;99.90;;;;;;5074197;28;20047;-71
2023/09/15 12:39:13;;;;;;;4.35;3.05;;;24.10;99.90;;;;;;5074725;28;20028;-70
2023/09/15 12:41:38;;;;;;;4.45;2.97;;;24.10;99.90;;;;;;5073965;28;20416;-71
2023/09/15 12:44:04;;;;;;;6.80;3.03;;;24.10;1.00;;;;;;5074348;28;20073;-70